sensor_id;sensor_type;location;lat;lon;timestamp;P1;durP1;ratioP1;P2;durP2;ratioP2
36205;SDS011;22242;48.796;9.930;2023-03-03T00:00:55;61.90;;;28.23;;
36205;SDS011;22242;48.796;9.930;2023-03-03T00:03:23;61.00;;;25.67;;
36205;SDS011;22242;48.796;9.930;2023-03-03T00:05:51;57.35;;;26.33;;
36205;SDS011;22242;48.796;9.930;2023-03-03T00:08:20;60.78;;;26.55;;
36205;SDS011;22242;48.796;9.930;2023-03-03T00:10:48;57.72;;;26.00;;
36205;SDS011;22242;48.796;9.930;2023-03-03T00:13:16;61.88;;;26.58;;
36205;SDS011;22242;48.796;9.930;2023-03-03T00:15:44;64.88;;;28.55;;
36205;SDS011;22242;48.796;9.930;2023-03-03T00:18:15;59.45;;;28.52;;
36205;SDS011;22242;48.796;9.930;2023-03-03T00:20:47;62.53;;;26.52;;
36205;SDS011;22242;48.796;9.930;2023-03-03T00:23:25;62.38;;;27.77;;
36205;SDS011;22242;48.796;9.930;2023-03-03T00:25:57;62.60;;;26.80;;
36205;SDS011;22242;48.796;9.930;2023-03-03T00:28:26;66.93;;;28.17;;
36205;SDS011;22242;48.796;9.930;2023-03-03T00:30:55;58.88;;;26.65;;
36205;SDS011;22242;48.796;9.930;2023-03-03T00:33:25;70.68;;;29.23;;
36205;SDS011;22242;48.796;9.930;2023-03-03T00:35:54;63.03;;;27.88;;
36205;SDS011;22242;48.796;9.930;2023-03-03T00:38:22;62.13;;;27.80;;
36205;SDS011;22242;48.796;9.930;2023-03-03T00:40:50;60.60;;;26.15;;
36205;SDS011;22242;48.796;9.930;2023-03-03T00:43:18;61.60;;;26.23;;
36205;SDS011;22242;48.796;9.930;2023-03-03T00:45:47;61.90;;;26.92;;
36205;SDS011;22242;48.796;9.930;2023-03-03T00:48:20;66.30;;;28.83;;
36205;SDS011;22242;48.796;9.930;2023-03-03T00:50:49;67.85;;;28.30;;
36205;SDS011;22242;48.796;9.930;2023-03-03T00:53:18;62.47;;;26.80;;
36205;SDS011;22242;48.796;9.930;2023-03-03T00:55:48;63.10;;;27.38;;
36205;SDS011;22242;48.796;9.930;2023-03-03T00:58:16;65.93;;;28.45;;
36205;SDS011;22242;48.796;9.930;2023-03-03T01:00:46;80.55;;;32.80;;
36205;SDS011;22242;48.796;9.930;2023-03-03T01:03:17;65.63;;;29.02;;
36205;SDS011;22242;48.796;9.930;2023-03-03T01:05:46;67.03;;;28.30;;
36205;SDS011;22242;48.796;9.930;2023-03-03T01:08:14;70.03;;;30.83;;
36205;SDS011;22242;48.796;9.930;2023-03-03T01:10:41;65.15;;;30.25;;
36205;SDS011;22242;48.796;9.930;2023-03-03T01:13:12;68.63;;;29.08;;
36205;SDS011;22242;48.796;9.930;2023-03-03T01:15:39;71.72;;;29.90;;
36205;SDS011;22242;48.796;9.930;2023-03-03T01:18:06;64.05;;;27.52;;
36205;SDS011;22242;48.796;9.930;2023-03-03T01:20:34;64.15;;;29.15;;
36205;SDS011;22242;48.796;9.930;2023-03-03T01:23:01;64.25;;;28.88;;
36205;SDS011;22242;48.796;9.930;2023-03-03T01:25:29;63.67;;;28.25;;
36205;SDS011;22242;48.796;9.930;2023-03-03T01:27:57;65.03;;;26.95;;
36205;SDS011;22242;48.796;9.930;2023-03-03T01:30:26;61.92;;;28.00;;
36205;SDS011;22242;48.796;9.930;2023-03-03T01:32:53;66.60;;;27.77;;
36205;SDS011;22242;48.796;9.930;2023-03-03T01:35:21;59.40;;;27.13;;
36205;SDS011;22242;48.796;9.930;2023-03-03T01:37:48;65.75;;;28.33;;
36205;SDS011;22242;48.796;9.930;2023-03-03T01:40:16;64.90;;;28.85;;
36205;SDS011;22242;48.796;9.930;2023-03-03T01:42:45;65.45;;;28.60;;
36205;SDS011;22242;48.796;9.930;2023-03-03T01:45:14;56.60;;;28.13;;
36205;SDS011;22242;48.796;9.930;2023-03-03T01:47:46;63.65;;;26.73;;
36205;SDS011;22242;48.796;9.930;2023-03-03T01:50:20;59.88;;;27.85;;
36205;SDS011;22242;48.796;9.930;2023-03-03T01:52:54;63.95;;;27.75;;
36205;SDS011;22242;48.796;9.930;2023-03-03T01:55:27;62.22;;;28.35;;
36205;SDS011;22242;48.796;9.930;2023-03-03T01:58:00;62.15;;;27.75;;
36205;SDS011;22242;48.796;9.930;2023-03-03T02:00:33;64.13;;;28.23;;
36205;SDS011;22242;48.796;9.930;2023-03-03T02:03:04;63.47;;;28.08;;
36205;SDS011;22242;48.796;9.930;2023-03-03T02:05:31;67.32;;;28.50;;
36205;SDS011;22242;48.796;9.930;2023-03-03T02:08:00;64.22;;;28.30;;
36205;SDS011;22242;48.796;9.930;2023-03-03T02:10:28;65.32;;;28.30;;
36205;SDS011;22242;48.796;9.930;2023-03-03T02:12:56;62.33;;;27.88;;
36205;SDS011;22242;48.796;9.930;2023-03-03T02:15:25;60.55;;;28.02;;
36205;SDS011;22242;48.796;9.930;2023-03-03T02:17:54;60.17;;;27.42;;
36205;SDS011;22242;48.796;9.930;2023-03-03T02:20:30;65.20;;;28.27;;
36205;SDS011;22242;48.796;9.930;2023-03-03T02:23:09;63.90;;;29.75;;
36205;SDS011;22242;48.796;9.930;2023-03-03T02:25:46;64.97;;;27.77;;
36205;SDS011;22242;48.796;9.930;2023-03-03T02:28:21;61.70;;;28.15;;
36205;SDS011;22242;48.796;9.930;2023-03-03T02:30:53;66.03;;;27.75;;
36205;SDS011;22242;48.796;9.930;2023-03-03T02:33:22;64.53;;;29.15;;
36205;SDS011;22242;48.796;9.930;2023-03-03T02:35:49;62.80;;;28.08;;
36205;SDS011;22242;48.796;9.930;2023-03-03T02:38:19;68.00;;;29.48;;
36205;SDS011;22242;48.796;9.930;2023-03-03T02:40:58;67.85;;;29.05;;
36205;SDS011;22242;48.796;9.930;2023-03-03T02:43:32;64.82;;;27.77;;
36205;SDS011;22242;48.796;9.930;2023-03-03T02:46:05;59.65;;;27.52;;
36205;SDS011;22242;48.796;9.930;2023-03-03T02:48:32;65.93;;;30.58;;
36205;SDS011;22242;48.796;9.930;2023-03-03T02:51:00;68.15;;;27.90;;
36205;SDS011;22242;48.796;9.930;2023-03-03T02:53:26;63.38;;;28.02;;
36205;SDS011;22242;48.796;9.930;2023-03-03T02:55:53;59.42;;;27.75;;
36205;SDS011;22242;48.796;9.930;2023-03-03T02:58:21;59.33;;;27.65;;
36205;SDS011;22242;48.796;9.930;2023-03-03T03:00:49;63.75;;;28.20;;
36205;SDS011;22242;48.796;9.930;2023-03-03T03:03:20;60.83;;;27.27;;
36205;SDS011;22242;48.796;9.930;2023-03-03T03:05:47;64.85;;;28.73;;
36205;SDS011;22242;48.796;9.930;2023-03-03T03:08:17;66.13;;;28.80;;
36205;SDS011;22242;48.796;9.930;2023-03-03T03:10:45;63.88;;;27.63;;
36205;SDS011;22242;48.796;9.930;2023-03-03T03:13:12;67.47;;;29.10;;
36205;SDS011;22242;48.796;9.930;2023-03-03T03:15:40;61.58;;;28.23;;
36205;SDS011;22242;48.796;9.930;2023-03-03T03:18:08;64.40;;;28.02;;
36205;SDS011;22242;48.796;9.930;2023-03-03T03:20:36;63.00;;;27.58;;
36205;SDS011;22242;48.796;9.930;2023-03-03T03:23:07;68.43;;;30.15;;
36205;SDS011;22242;48.796;9.930;2023-03-03T03:25:35;66.53;;;29.88;;
36205;SDS011;22242;48.796;9.930;2023-03-03T03:28:11;65.80;;;30.83;;
36205;SDS011;22242;48.796;9.930;2023-03-03T03:30:38;66.75;;;29.48;;
36205;SDS011;22242;48.796;9.930;2023-03-03T03:33:06;72.57;;;31.15;;
36205;SDS011;22242;48.796;9.930;2023-03-03T03:35:36;69.68;;;29.60;;
36205;SDS011;22242;48.796;9.930;2023-03-03T03:38:05;66.03;;;28.35;;
36205;SDS011;22242;48.796;9.930;2023-03-03T03:40:32;69.25;;;28.92;;
36205;SDS011;22242;48.796;9.930;2023-03-03T03:42:59;61.47;;;27.85;;
36205;SDS011;22242;48.796;9.930;2023-03-03T03:45:26;64.88;;;28.67;;
36205;SDS011;22242;48.796;9.930;2023-03-03T03:47:54;66.95;;;29.00;;
36205;SDS011;22242;48.796;9.930;2023-03-03T03:50:23;66.32;;;29.65;;
36205;SDS011;22242;48.796;9.930;2023-03-03T03:52:50;63.03;;;28.85;;
36205;SDS011;22242;48.796;9.930;2023-03-03T03:55:17;63.97;;;29.73;;
36205;SDS011;22242;48.796;9.930;2023-03-03T03:57:44;63.10;;;28.35;;
36205;SDS011;22242;48.796;9.930;2023-03-03T04:00:11;66.50;;;28.73;;
36205;SDS011;22242;48.796;9.930;2023-03-03T04:02:39;66.45;;;29.25;;
36205;SDS011;22242;48.796;9.930;2023-03-03T04:05:09;63.40;;;27.77;;
36205;SDS011;22242;48.796;9.930;2023-03-03T04:07:38;70.63;;;29.77;;
36205;SDS011;22242;48.796;9.930;2023-03-03T04:10:06;70.70;;;30.42;;
36205;SDS011;22242;48.796;9.930;2023-03-03T04:12:34;68.82;;;30.67;;
36205;SDS011;22242;48.796;9.930;2023-03-03T04:15:06;68.70;;;30.13;;
36205;SDS011;22242;48.796;9.930;2023-03-03T04:17:35;74.90;;;30.45;;
36205;SDS011;22242;48.796;9.930;2023-03-03T04:20:03;70.80;;;28.88;;
36205;SDS011;22242;48.796;9.930;2023-03-03T04:22:32;71.00;;;31.40;;
36205;SDS011;22242;48.796;9.930;2023-03-03T04:25:02;67.00;;;30.48;;
36205;SDS011;22242;48.796;9.930;2023-03-03T04:27:34;67.00;;;29.73;;
36205;SDS011;22242;48.796;9.930;2023-03-03T04:30:04;73.47;;;32.25;;
36205;SDS011;22242;48.796;9.930;2023-03-03T04:32:32;66.55;;;28.88;;
36205;SDS011;22242;48.796;9.930;2023-03-03T04:35:02;62.92;;;29.15;;
36205;SDS011;22242;48.796;9.930;2023-03-03T04:37:29;70.30;;;30.10;;
36205;SDS011;22242;48.796;9.930;2023-03-03T04:39:56;72.35;;;31.10;;
36205;SDS011;22242;48.796;9.930;2023-03-03T04:42:25;67.03;;;30.60;;
36205;SDS011;22242;48.796;9.930;2023-03-03T04:44:53;70.72;;;31.50;;
36205;SDS011;22242;48.796;9.930;2023-03-03T04:47:21;68.45;;;30.17;;
36205;SDS011;22242;48.796;9.930;2023-03-03T04:49:48;71.93;;;30.30;;
36205;SDS011;22242;48.796;9.930;2023-03-03T04:52:15;72.40;;;31.27;;
36205;SDS011;22242;48.796;9.930;2023-03-03T04:54:42;68.18;;;31.50;;
36205;SDS011;22242;48.796;9.930;2023-03-03T04:57:09;75.22;;;32.83;;
36205;SDS011;22242;48.796;9.930;2023-03-03T04:59:38;71.78;;;30.70;;
36205;SDS011;22242;48.796;9.930;2023-03-03T05:02:06;74.60;;;32.40;;
36205;SDS011;22242;48.796;9.930;2023-03-03T05:04:51;77.45;;;34.38;;
36205;SDS011;22242;48.796;9.930;2023-03-03T05:07:18;79.88;;;32.85;;
36205;SDS011;22242;48.796;9.930;2023-03-03T05:09:45;80.53;;;33.50;;
36205;SDS011;22242;48.796;9.930;2023-03-03T05:12:12;84.40;;;33.92;;
36205;SDS011;22242;48.796;9.930;2023-03-03T05:14:41;91.28;;;36.83;;
36205;SDS011;22242;48.796;9.930;2023-03-03T05:17:08;72.05;;;32.35;;
36205;SDS011;22242;48.796;9.930;2023-03-03T05:19:35;82.55;;;34.70;;
36205;SDS011;22242;48.796;9.930;2023-03-03T05:22:02;99.63;;;40.47;;
36205;SDS011;22242;48.796;9.930;2023-03-03T05:24:29;84.25;;;37.97;;
36205;SDS011;22242;48.796;9.930;2023-03-03T05:26:56;77.65;;;34.28;;
36205;SDS011;22242;48.796;9.930;2023-03-03T05:29:24;80.20;;;35.40;;
36205;SDS011;22242;48.796;9.930;2023-03-03T05:31:53;76.45;;;32.60;;
36205;SDS011;22242;48.796;9.930;2023-03-03T05:34:20;72.97;;;33.55;;
36205;SDS011;22242;48.796;9.930;2023-03-03T05:36:47;80.38;;;32.53;;
36205;SDS011;22242;48.796;9.930;2023-03-03T05:39:15;76.25;;;33.58;;
36205;SDS011;22242;48.796;9.930;2023-03-03T05:41:42;73.30;;;33.45;;
36205;SDS011;22242;48.796;9.930;2023-03-03T05:44:09;73.35;;;31.88;;
36205;SDS011;22242;48.796;9.930;2023-03-03T05:46:36;74.32;;;32.75;;
36205;SDS011;22242;48.796;9.930;2023-03-03T05:49:04;79.55;;;32.80;;
36205;SDS011;22242;48.796;9.930;2023-03-03T05:51:31;76.78;;;31.40;;
36205;SDS011;22242;48.796;9.930;2023-03-03T05:53:59;71.07;;;31.83;;
36205;SDS011;22242;48.796;9.930;2023-03-03T05:56:25;71.85;;;32.55;;
36205;SDS011;22242;48.796;9.930;2023-03-03T05:58:52;80.05;;;33.38;;
36205;SDS011;22242;48.796;9.930;2023-03-03T06:01:20;68.90;;;30.88;;
36205;SDS011;22242;48.796;9.930;2023-03-03T06:03:47;77.97;;;33.42;;
36205;SDS011;22242;48.796;9.930;2023-03-03T06:06:15;95.60;;;35.15;;
36205;SDS011;22242;48.796;9.930;2023-03-03T06:08:43;94.20;;;36.22;;
36205;SDS011;22242;48.796;9.930;2023-03-03T06:11:11;107.05;;;35.80;;
36205;SDS011;22242;48.796;9.930;2023-03-03T06:13:38;101.25;;;36.50;;
36205;SDS011;22242;48.796;9.930;2023-03-03T06:16:07;101.20;;;36.33;;
36205;SDS011;22242;48.796;9.930;2023-03-03T06:18:34;82.65;;;35.25;;
36205;SDS011;22242;48.796;9.930;2023-03-03T06:21:01;95.78;;;38.65;;
36205;SDS011;22242;48.796;9.930;2023-03-03T06:23:29;92.63;;;35.00;;
36205;SDS011;22242;48.796;9.930;2023-03-03T06:25:56;85.10;;;34.33;;
36205;SDS011;22242;48.796;9.930;2023-03-03T06:28:23;82.82;;;34.50;;
36205;SDS011;22242;48.796;9.930;2023-03-03T06:30:51;79.10;;;34.38;;
36205;SDS011;22242;48.796;9.930;2023-03-03T06:33:19;77.72;;;34.00;;
36205;SDS011;22242;48.796;9.930;2023-03-03T06:35:47;77.18;;;33.28;;
36205;SDS011;22242;48.796;9.930;2023-03-03T06:38:15;75.57;;;33.08;;
36205;SDS011;22242;48.796;9.930;2023-03-03T06:40:44;76.75;;;33.10;;
36205;SDS011;22242;48.796;9.930;2023-03-03T06:43:12;71.18;;;32.22;;
36205;SDS011;22242;48.796;9.930;2023-03-03T06:45:39;72.25;;;33.63;;
36205;SDS011;22242;48.796;9.930;2023-03-03T06:48:07;70.68;;;33.70;;
36205;SDS011;22242;48.796;9.930;2023-03-03T06:50:34;77.38;;;33.67;;
36205;SDS011;22242;48.796;9.930;2023-03-03T06:53:06;81.40;;;35.17;;
36205;SDS011;22242;48.796;9.930;2023-03-03T06:55:37;72.18;;;31.92;;
36205;SDS011;22242;48.796;9.930;2023-03-03T06:58:09;78.65;;;35.35;;
36205;SDS011;22242;48.796;9.930;2023-03-03T07:00:39;74.38;;;33.97;;
36205;SDS011;22242;48.796;9.930;2023-03-03T07:03:11;73.13;;;33.63;;
36205;SDS011;22242;48.796;9.930;2023-03-03T07:05:41;69.60;;;32.08;;
36205;SDS011;22242;48.796;9.930;2023-03-03T07:08:12;73.55;;;32.65;;
36205;SDS011;22242;48.796;9.930;2023-03-03T07:10:41;79.63;;;34.35;;
36205;SDS011;22242;48.796;9.930;2023-03-03T07:13:20;75.97;;;33.00;;
36205;SDS011;22242;48.796;9.930;2023-03-03T07:15:49;76.75;;;34.40;;
36205;SDS011;22242;48.796;9.930;2023-03-03T07:18:21;80.20;;;32.75;;
36205;SDS011;22242;48.796;9.930;2023-03-03T07:21:04;74.40;;;33.08;;
36205;SDS011;22242;48.796;9.930;2023-03-03T07:23:38;76.38;;;34.67;;
36205;SDS011;22242;48.796;9.930;2023-03-03T07:26:08;79.40;;;33.58;;
36205;SDS011;22242;48.796;9.930;2023-03-03T07:28:41;76.25;;;33.90;;
36205;SDS011;22242;48.796;9.930;2023-03-03T07:31:16;82.28;;;35.92;;
36205;SDS011;22242;48.796;9.930;2023-03-03T07:33:51;81.60;;;36.33;;
36205;SDS011;22242;48.796;9.930;2023-03-03T07:36:22;92.72;;;37.70;;
36205;SDS011;22242;48.796;9.930;2023-03-03T07:38:53;86.72;;;36.83;;
36205;SDS011;22242;48.796;9.930;2023-03-03T07:41:22;94.25;;;38.00;;
36205;SDS011;22242;48.796;9.930;2023-03-03T07:43:51;83.50;;;36.83;;
36205;SDS011;22242;48.796;9.930;2023-03-03T07:46:22;72.45;;;33.53;;
36205;SDS011;22242;48.796;9.930;2023-03-03T07:48:55;74.97;;;34.22;;
36205;SDS011;22242;48.796;9.930;2023-03-03T07:51:25;77.63;;;33.45;;
36205;SDS011;22242;48.796;9.930;2023-03-03T07:53:54;80.10;;;35.25;;
36205;SDS011;22242;48.796;9.930;2023-03-03T07:56:38;72.35;;;34.63;;
36205;SDS011;22242;48.796;9.930;2023-03-03T07:59:12;72.10;;;32.85;;
36205;SDS011;22242;48.796;9.930;2023-03-03T08:01:46;68.82;;;32.92;;
36205;SDS011;22242;48.796;9.930;2023-03-03T08:04:16;77.05;;;34.05;;
36205;SDS011;22242;48.796;9.930;2023-03-03T08:06:49;74.60;;;32.08;;
36205;SDS011;22242;48.796;9.930;2023-03-03T08:09:25;69.53;;;32.45;;
36205;SDS011;22242;48.796;9.930;2023-03-03T08:11:57;74.93;;;32.90;;
36205;SDS011;22242;48.796;9.930;2023-03-03T08:14:29;73.97;;;31.65;;
36205;SDS011;22242;48.796;9.930;2023-03-03T08:16:59;66.30;;;31.27;;
36205;SDS011;22242;48.796;9.930;2023-03-03T08:19:26;66.45;;;32.35;;
36205;SDS011;22242;48.796;9.930;2023-03-03T08:21:55;63.72;;;30.73;;
36205;SDS011;22242;48.796;9.930;2023-03-03T08:24:26;65.30;;;31.50;;
36205;SDS011;22242;48.796;9.930;2023-03-03T08:26:53;62.05;;;30.95;;
36205;SDS011;22242;48.796;9.930;2023-03-03T08:29:20;62.58;;;29.30;;
36205;SDS011;22242;48.796;9.930;2023-03-03T08:31:48;68.00;;;30.50;;
36205;SDS011;22242;48.796;9.930;2023-03-03T08:34:15;63.67;;;30.33;;
36205;SDS011;22242;48.796;9.930;2023-03-03T08:36:42;63.67;;;31.17;;
36205;SDS011;22242;48.796;9.930;2023-03-03T08:39:11;63.33;;;31.17;;
36205;SDS011;22242;48.796;9.930;2023-03-03T08:41:39;59.42;;;30.48;;
36205;SDS011;22242;48.796;9.930;2023-03-03T08:44:08;62.08;;;31.17;;
36205;SDS011;22242;48.796;9.930;2023-03-03T08:46:35;59.38;;;30.23;;
36205;SDS011;22242;48.796;9.930;2023-03-03T08:49:04;55.45;;;29.02;;
36205;SDS011;22242;48.796;9.930;2023-03-03T08:51:31;58.35;;;32.35;;
36205;SDS011;22242;48.796;9.930;2023-03-03T08:53:59;62.55;;;32.40;;
36205;SDS011;22242;48.796;9.930;2023-03-03T08:56:26;58.05;;;31.30;;
36205;SDS011;22242;48.796;9.930;2023-03-03T08:58:53;55.20;;;31.20;;
36205;SDS011;22242;48.796;9.930;2023-03-03T09:01:20;55.47;;;31.95;;
36205;SDS011;22242;48.796;9.930;2023-03-03T09:03:47;63.15;;;33.55;;
36205;SDS011;22242;48.796;9.930;2023-03-03T09:06:16;57.50;;;30.73;;
36205;SDS011;22242;48.796;9.930;2023-03-03T09:08:43;57.65;;;30.85;;
36205;SDS011;22242;48.796;9.930;2023-03-03T09:11:10;55.78;;;31.77;;
36205;SDS011;22242;48.796;9.930;2023-03-03T09:13:38;54.67;;;31.27;;
36205;SDS011;22242;48.796;9.930;2023-03-03T09:16:06;56.85;;;32.63;;
36205;SDS011;22242;48.796;9.930;2023-03-03T09:21:36;58.30;;;32.05;;
36205;SDS011;22242;48.796;9.930;2023-03-03T09:24:04;57.40;;;33.13;;
36205;SDS011;22242;48.796;9.930;2023-03-03T09:26:43;60.88;;;32.63;;
36205;SDS011;22242;48.796;9.930;2023-03-03T09:29:17;60.75;;;32.00;;
36205;SDS011;22242;48.796;9.930;2023-03-03T09:31:49;63.90;;;33.88;;
36205;SDS011;22242;48.796;9.930;2023-03-03T09:34:18;64.63;;;32.50;;
36205;SDS011;22242;48.796;9.930;2023-03-03T09:36:49;67.00;;;32.83;;
36205;SDS011;22242;48.796;9.930;2023-03-03T09:39:17;63.13;;;33.25;;
36205;SDS011;22242;48.796;9.930;2023-03-03T09:41:52;69.03;;;32.80;;
36205;SDS011;22242;48.796;9.930;2023-03-03T09:44:39;61.97;;;33.22;;
36205;SDS011;22242;48.796;9.930;2023-03-03T09:47:26;62.97;;;33.05;;
36205;SDS011;22242;48.796;9.930;2023-03-03T09:50:17;60.10;;;32.00;;
36205;SDS011;22242;48.796;9.930;2023-03-03T09:52:59;61.20;;;32.05;;
36205;SDS011;22242;48.796;9.930;2023-03-03T09:55:43;57.22;;;30.27;;
36205;SDS011;22242;48.796;9.930;2023-03-03T09:58:20;65.22;;;31.90;;
36205;SDS011;22242;48.796;9.930;2023-03-03T10:00:59;72.18;;;37.22;;
36205;SDS011;22242;48.796;9.930;2023-03-03T10:03:48;59.28;;;30.33;;
36205;SDS011;22242;48.796;9.930;2023-03-03T10:06:29;60.78;;;32.08;;
36205;SDS011;22242;48.796;9.930;2023-03-03T10:09:07;69.95;;;35.33;;
36205;SDS011;22242;48.796;9.930;2023-03-03T10:11:51;59.95;;;33.33;;
36205;SDS011;22242;48.796;9.930;2023-03-03T10:14:40;59.00;;;31.63;;
36205;SDS011;22242;48.796;9.930;2023-03-03T10:17:21;57.03;;;30.65;;
36205;SDS011;22242;48.796;9.930;2023-03-03T10:19:58;49.17;;;28.35;;
36205;SDS011;22242;48.796;9.930;2023-03-03T10:22:43;54.10;;;29.48;;
36205;SDS011;22242;48.796;9.930;2023-03-03T10:25:23;51.45;;;27.17;;
36205;SDS011;22242;48.796;9.930;2023-03-03T10:28:03;49.42;;;28.52;;
36205;SDS011;22242;48.796;9.930;2023-03-03T10:30:47;50.72;;;27.85;;
36205;SDS011;22242;48.796;9.930;2023-03-03T10:33:24;47.20;;;27.70;;
36205;SDS011;22242;48.796;9.930;2023-03-03T10:36:05;45.47;;;26.33;;
36205;SDS011;22242;48.796;9.930;2023-03-03T10:38:49;47.50;;;26.33;;
36205;SDS011;22242;48.796;9.930;2023-03-03T10:41:27;49.17;;;26.60;;
36205;SDS011;22242;48.796;9.930;2023-03-03T10:44:15;45.53;;;24.85;;
36205;SDS011;22242;48.796;9.930;2023-03-03T10:50:00;46.80;;;25.67;;
36205;SDS011;22242;48.796;9.930;2023-03-03T10:52:37;45.80;;;25.05;;
36205;SDS011;22242;48.796;9.930;2023-03-03T10:55:17;44.83;;;24.85;;
36205;SDS011;22242;48.796;9.930;2023-03-03T10:57:58;44.67;;;24.48;;
36205;SDS011;22242;48.796;9.930;2023-03-03T11:00:51;43.33;;;24.60;;
36205;SDS011;22242;48.796;9.930;2023-03-03T11:03:34;45.30;;;23.75;;
36205;SDS011;22242;48.796;9.930;2023-03-03T11:06:12;39.40;;;22.80;;
36205;SDS011;22242;48.796;9.930;2023-03-03T11:08:45;41.20;;;21.60;;
36205;SDS011;22242;48.796;9.930;2023-03-03T11:11:19;39.45;;;21.25;;
36205;SDS011;22242;48.796;9.930;2023-03-03T11:13:55;41.05;;;22.90;;
36205;SDS011;22242;48.796;9.930;2023-03-03T11:16:32;41.25;;;23.77;;
36205;SDS011;22242;48.796;9.930;2023-03-03T11:19:20;41.28;;;22.50;;
36205;SDS011;22242;48.796;9.930;2023-03-03T11:21:59;44.00;;;23.50;;
36205;SDS011;22242;48.796;9.930;2023-03-03T11:24:42;37.78;;;22.25;;
36205;SDS011;22242;48.796;9.930;2023-03-03T11:27:19;38.40;;;20.92;;
36205;SDS011;22242;48.796;9.930;2023-03-03T11:29:59;34.15;;;20.08;;
36205;SDS011;22242;48.796;9.930;2023-03-03T11:32:37;40.00;;;20.90;;
36205;SDS011;22242;48.796;9.930;2023-03-03T11:35:19;36.47;;;19.80;;
36205;SDS011;22242;48.796;9.930;2023-03-03T11:37:52;43.85;;;26.58;;
36205;SDS011;22242;48.796;9.930;2023-03-03T11:40:29;36.92;;;19.60;;
36205;SDS011;22242;48.796;9.930;2023-03-03T11:43:06;36.70;;;21.15;;
36205;SDS011;22242;48.796;9.930;2023-03-03T11:45:41;39.35;;;21.08;;
36205;SDS011;22242;48.796;9.930;2023-03-03T11:48:13;37.95;;;19.88;;
36205;SDS011;22242;48.796;9.930;2023-03-03T11:50:47;35.53;;;19.40;;
36205;SDS011;22242;48.796;9.930;2023-03-03T11:53:23;36.25;;;20.70;;
36205;SDS011;22242;48.796;9.930;2023-03-03T11:55:58;35.30;;;19.98;;
36205;SDS011;22242;48.796;9.930;2023-03-03T11:58:30;34.72;;;19.73;;
36205;SDS011;22242;48.796;9.930;2023-03-03T12:01:06;33.55;;;19.33;;
36205;SDS011;22242;48.796;9.930;2023-03-03T12:03:44;37.13;;;20.98;;
36205;SDS011;22242;48.796;9.930;2023-03-03T12:06:16;36.20;;;21.13;;
36205;SDS011;22242;48.796;9.930;2023-03-03T12:09:02;66.10;;;40.20;;
36205;SDS011;22242;48.796;9.930;2023-03-03T12:11:44;35.97;;;20.80;;
36205;SDS011;22242;48.796;9.930;2023-03-03T12:14:17;38.03;;;20.77;;
36205;SDS011;22242;48.796;9.930;2023-03-03T12:16:55;36.92;;;20.38;;
36205;SDS011;22242;48.796;9.930;2023-03-03T12:19:26;38.58;;;22.00;;
36205;SDS011;22242;48.796;9.930;2023-03-03T12:22:03;36.72;;;21.25;;
36205;SDS011;22242;48.796;9.930;2023-03-03T12:24:50;40.33;;;23.45;;
36205;SDS011;22242;48.796;9.930;2023-03-03T12:27:27;48.45;;;27.90;;
36205;SDS011;22242;48.796;9.930;2023-03-03T12:30:02;35.42;;;21.10;;
36205;SDS011;22242;48.796;9.930;2023-03-03T12:32:49;48.88;;;26.80;;
36205;SDS011;22242;48.796;9.930;2023-03-03T12:35:30;61.40;;;33.72;;
36205;SDS011;22242;48.796;9.930;2023-03-03T12:38:05;36.67;;;20.98;;
36205;SDS011;22242;48.796;9.930;2023-03-03T12:40:43;38.65;;;21.83;;
36205;SDS011;22242;48.796;9.930;2023-03-03T12:43:18;36.60;;;20.38;;
36205;SDS011;22242;48.796;9.930;2023-03-03T12:46:01;37.63;;;20.70;;
36205;SDS011;22242;48.796;9.930;2023-03-03T12:48:39;35.38;;;20.20;;
36205;SDS011;22242;48.796;9.930;2023-03-03T12:51:11;39.72;;;22.35;;
36205;SDS011;22242;48.796;9.930;2023-03-03T12:53:49;47.20;;;23.00;;
36205;SDS011;22242;48.796;9.930;2023-03-03T12:56:29;45.25;;;24.05;;
36205;SDS011;22242;48.796;9.930;2023-03-03T13:01:34;38.55;;;21.27;;
36205;SDS011;22242;48.796;9.930;2023-03-03T13:04:25;39.20;;;22.27;;
36205;SDS011;22242;48.796;9.930;2023-03-03T13:06:58;37.65;;;20.58;;
36205;SDS011;22242;48.796;9.930;2023-03-03T13:09:36;39.70;;;21.73;;
36205;SDS011;22242;48.796;9.930;2023-03-03T13:12:23;40.67;;;20.85;;
36205;SDS011;22242;48.796;9.930;2023-03-03T13:14:58;46.00;;;21.83;;
36205;SDS011;22242;48.796;9.930;2023-03-03T13:17:31;39.30;;;20.42;;
36205;SDS011;22242;48.796;9.930;2023-03-03T13:20:05;38.72;;;20.83;;
36205;SDS011;22242;48.796;9.930;2023-03-03T13:22:43;38.65;;;20.45;;
36205;SDS011;22242;48.796;9.930;2023-03-03T13:25:20;32.03;;;19.67;;
36205;SDS011;22242;48.796;9.930;2023-03-03T13:28:00;37.70;;;20.52;;
36205;SDS011;22242;48.796;9.930;2023-03-03T13:30:33;35.65;;;20.60;;
36205;SDS011;22242;48.796;9.930;2023-03-03T13:33:05;41.92;;;21.75;;
36205;SDS011;22242;48.796;9.930;2023-03-03T13:35:39;37.78;;;20.67;;
36205;SDS011;22242;48.796;9.930;2023-03-03T13:38:11;39.38;;;21.25;;
36205;SDS011;22242;48.796;9.930;2023-03-03T13:40:42;36.88;;;20.75;;
36205;SDS011;22242;48.796;9.930;2023-03-03T13:43:13;44.10;;;22.38;;
36205;SDS011;22242;48.796;9.930;2023-03-03T13:45:48;38.25;;;20.27;;
36205;SDS011;22242;48.796;9.930;2023-03-03T13:51:25;43.97;;;21.40;;
36205;SDS011;22242;48.796;9.930;2023-03-03T13:54:01;36.97;;;20.40;;
36205;SDS011;22242;48.796;9.930;2023-03-03T13:56:38;41.20;;;22.23;;
36205;SDS011;22242;48.796;9.930;2023-03-03T13:59:29;34.10;;;20.02;;
36205;SDS011;22242;48.796;9.930;2023-03-03T14:02:09;38.05;;;20.98;;
36205;SDS011;22242;48.796;9.930;2023-03-03T14:04:53;38.58;;;19.65;;
36205;SDS011;22242;48.796;9.930;2023-03-03T14:07:29;35.40;;;19.48;;
36205;SDS011;22242;48.796;9.930;2023-03-03T14:10:02;35.08;;;19.08;;
36205;SDS011;22242;48.796;9.930;2023-03-03T14:12:39;32.17;;;18.67;;
36205;SDS011;22242;48.796;9.930;2023-03-03T14:15:17;35.72;;;19.40;;
36205;SDS011;22242;48.796;9.930;2023-03-03T14:17:54;39.53;;;20.13;;
36205;SDS011;22242;48.796;9.930;2023-03-03T14:20:43;37.40;;;20.42;;
36205;SDS011;22242;48.796;9.930;2023-03-03T14:23:15;35.60;;;19.05;;
36205;SDS011;22242;48.796;9.930;2023-03-03T14:25:51;39.38;;;19.92;;
36205;SDS011;22242;48.796;9.930;2023-03-03T14:28:36;37.22;;;19.77;;
36205;SDS011;22242;48.796;9.930;2023-03-03T14:31:09;35.15;;;18.88;;
36205;SDS011;22242;48.796;9.930;2023-03-03T14:33:42;34.25;;;19.75;;
36205;SDS011;22242;48.796;9.930;2023-03-03T14:36:12;39.15;;;21.05;;
36205;SDS011;22242;48.796;9.930;2023-03-03T14:38:48;42.55;;;21.05;;
36205;SDS011;22242;48.796;9.930;2023-03-03T14:41:17;37.47;;;20.63;;
36205;SDS011;22242;48.796;9.930;2023-03-03T14:43:55;40.05;;;22.40;;
36205;SDS011;22242;48.796;9.930;2023-03-03T14:46:31;39.38;;;20.40;;
36205;SDS011;22242;48.796;9.930;2023-03-03T14:49:01;37.67;;;20.83;;
36205;SDS011;22242;48.796;9.930;2023-03-03T14:51:32;37.55;;;21.45;;
36205;SDS011;22242;48.796;9.930;2023-03-03T14:54:08;39.08;;;21.15;;
36205;SDS011;22242;48.796;9.930;2023-03-03T14:56:53;38.20;;;20.88;;
36205;SDS011;22242;48.796;9.930;2023-03-03T14:59:24;38.38;;;21.70;;
36205;SDS011;22242;48.796;9.930;2023-03-03T15:01:55;43.13;;;22.23;;